sensor_id;sensor_type;location;lat;lon;timestamp;P1;durP1;ratioP1;P2;durP2;ratioP2
57826;SDS011;43656;57.746;11.780;2023-02-28T00:00:06;2.70;;;1.00;;
57826;SDS011;43656;57.746;11.780;2023-02-28T00:02:35;2.70;;;1.00;;
57826;SDS011;43656;57.746;11.780;2023-02-28T00:05:01;1.63;;;0.80;;
57826;SDS011;43656;57.746;11.780;2023-02-28T00:07:28;2.15;;;0.90;;
57826;SDS011;43656;57.746;11.780;2023-02-28T00:09:55;2.17;;;0.90;;
57826;SDS011;43656;57.746;11.780;2023-02-28T00:12:20;2.42;;;0.98;;
57826;SDS011;43656;57.746;11.780;2023-02-28T00:14:46;2.33;;;0.80;;
57826;SDS011;43656;57.746;11.780;2023-02-28T00:17:11;1.55;;;0.90;;
57826;SDS011;43656;57.746;11.780;2023-02-28T00:19:37;3.15;;;1.27;;
57826;SDS011;43656;57.746;11.780;2023-02-28T00:22:02;5.53;;;1.60;;
57826;SDS011;43656;57.746;11.780;2023-02-28T00:24:27;4.30;;;1.70;;
57826;SDS011;43656;57.746;11.780;2023-02-28T00:26:53;6.22;;;2.53;;
57826;SDS011;43656;57.746;11.780;2023-02-28T00:29:18;10.10;;;3.10;;
57826;SDS011;43656;57.746;11.780;2023-02-28T00:31:43;6.47;;;2.90;;
57826;SDS011;43656;57.746;11.780;2023-02-28T00:34:09;4.53;;;1.90;;
57826;SDS011;43656;57.746;11.780;2023-02-28T00:36:34;2.40;;;1.20;;
57826;SDS011;43656;57.746;11.780;2023-02-28T00:39:00;6.03;;;1.10;;
57826;SDS011;43656;57.746;11.780;2023-02-28T00:41:25;3.55;;;1.13;;
57826;SDS011;43656;57.746;11.780;2023-02-28T00:43:51;3.22;;;1.05;;
57826;SDS011;43656;57.746;11.780;2023-02-28T00:46:16;4.30;;;1.20;;
57826;SDS011;43656;57.746;11.780;2023-02-28T00:48:42;8.32;;;1.58;;
57826;SDS011;43656;57.746;11.780;2023-02-28T00:51:08;3.70;;;1.13;;
57826;SDS011;43656;57.746;11.780;2023-02-28T00:53:33;4.32;;;1.10;;
57826;SDS011;43656;57.746;11.780;2023-02-28T00:55:59;3.00;;;0.85;;
57826;SDS011;43656;57.746;11.780;2023-02-28T00:58:25;3.95;;;0.90;;
57826;SDS011;43656;57.746;11.780;2023-02-28T01:00:51;2.88;;;1.00;;
57826;SDS011;43656;57.746;11.780;2023-02-28T01:03:18;2.28;;;0.80;;
57826;SDS011;43656;57.746;11.780;2023-02-28T01:05:44;2.75;;;0.90;;
57826;SDS011;43656;57.746;11.780;2023-02-28T01:08:10;1.70;;;0.70;;
57826;SDS011;43656;57.746;11.780;2023-02-28T01:10:36;5.20;;;0.98;;
57826;SDS011;43656;57.746;11.780;2023-02-28T01:13:02;2.67;;;1.20;;
57826;SDS011;43656;57.746;11.780;2023-02-28T01:15:28;2.55;;;0.90;;
57826;SDS011;43656;57.746;11.780;2023-02-28T01:17:53;1.80;;;0.80;;
57826;SDS011;43656;57.746;11.780;2023-02-28T01:20:19;5.13;;;1.50;;
57826;SDS011;43656;57.746;11.780;2023-02-28T01:22:44;2.33;;;0.82;;
57826;SDS011;43656;57.746;11.780;2023-02-28T01:25:10;3.80;;;0.80;;
57826;SDS011;43656;57.746;11.780;2023-02-28T01:27:35;2.47;;;0.52;;
57826;SDS011;43656;57.746;11.780;2023-02-28T01:30:01;1.58;;;0.60;;
57826;SDS011;43656;57.746;11.780;2023-02-28T01:32:27;2.55;;;0.70;;
57826;SDS011;43656;57.746;11.780;2023-02-28T01:34:53;3.15;;;1.00;;
57826;SDS011;43656;57.746;11.780;2023-02-28T01:37:18;5.50;;;0.85;;
57826;SDS011;43656;57.746;11.780;2023-02-28T01:39:44;4.60;;;0.95;;
57826;SDS011;43656;57.746;11.780;2023-02-28T01:42:12;5.60;;;1.10;;
57826;SDS011;43656;57.746;11.780;2023-02-28T01:44:55;2.40;;;1.10;;
57826;SDS011;43656;57.746;11.780;2023-02-28T01:47:24;3.13;;;1.38;;
57826;SDS011;43656;57.746;11.780;2023-02-28T01:49:53;3.70;;;1.80;;
57826;SDS011;43656;57.746;11.780;2023-02-28T01:52:19;2.90;;;1.30;;
57826;SDS011;43656;57.746;11.780;2023-02-28T01:54:47;3.95;;;1.40;;
57826;SDS011;43656;57.746;11.780;2023-02-28T01:57:19;5.88;;;1.08;;
57826;SDS011;43656;57.746;11.780;2023-02-28T01:59:54;3.80;;;1.50;;
57826;SDS011;43656;57.746;11.780;2023-02-28T02:02:24;4.38;;;1.20;;
57826;SDS011;43656;57.746;11.780;2023-02-28T02:07:29;3.25;;;1.33;;
57826;SDS011;43656;57.746;11.780;2023-02-28T02:10:40;4.40;;;1.50;;
57826;SDS011;43656;57.746;11.780;2023-02-28T02:18:14;3.63;;;1.23;;
57826;SDS011;43656;57.746;11.780;2023-02-28T02:25:54;4.18;;;1.60;;
57826;SDS011;43656;57.746;11.780;2023-02-28T02:34:15;4.53;;;1.20;;
57826;SDS011;43656;57.746;11.780;2023-02-28T02:36:47;4.90;;;1.33;;
57826;SDS011;43656;57.746;11.780;2023-02-28T02:42:29;2.03;;;1.20;;
57826;SDS011;43656;57.746;11.780;2023-02-28T02:45:06;5.05;;;1.30;;
57826;SDS011;43656;57.746;11.780;2023-02-28T02:47:37;3.55;;;1.40;;
57826;SDS011;43656;57.746;11.780;2023-02-28T02:50:08;4.57;;;2.00;;
57826;SDS011;43656;57.746;11.780;2023-02-28T02:52:42;3.10;;;1.10;;
57826;SDS011;43656;57.746;11.780;2023-02-28T02:55:13;4.68;;;1.17;;
57826;SDS011;43656;57.746;11.780;2023-02-28T02:57:47;2.05;;;1.10;;
57826;SDS011;43656;57.746;11.780;2023-02-28T03:00:17;3.65;;;1.20;;
57826;SDS011;43656;57.746;11.780;2023-02-28T03:02:48;4.32;;;1.30;;
57826;SDS011;43656;57.746;11.780;2023-02-28T03:05:24;4.03;;;1.98;;
57826;SDS011;43656;57.746;11.780;2023-02-28T03:07:52;4.43;;;1.63;;
57826;SDS011;43656;57.746;11.780;2023-02-28T03:10:31;5.78;;;1.17;;
57826;SDS011;43656;57.746;11.780;2023-02-28T03:13:00;3.35;;;1.20;;
57826;SDS011;43656;57.746;11.780;2023-02-28T03:18:40;3.25;;;1.73;;
57826;SDS011;43656;57.746;11.780;2023-02-28T03:24:04;2.28;;;1.00;;
57826;SDS011;43656;57.746;11.780;2023-02-28T03:26:36;2.60;;;0.80;;
57826;SDS011;43656;57.746;11.780;2023-02-28T03:31:48;4.20;;;1.35;;
57826;SDS011;43656;57.746;11.780;2023-02-28T03:34:36;3.90;;;1.48;;
57826;SDS011;43656;57.746;11.780;2023-02-28T03:37:07;2.22;;;1.20;;
57826;SDS011;43656;57.746;11.780;2023-02-28T03:39:40;2.60;;;1.40;;
57826;SDS011;43656;57.746;11.780;2023-02-28T03:44:52;2.90;;;1.52;;
57826;SDS011;43656;57.746;11.780;2023-02-28T03:47:32;4.25;;;1.63;;
57826;SDS011;43656;57.746;11.780;2023-02-28T03:52:35;3.22;;;1.00;;
57826;SDS011;43656;57.746;11.780;2023-02-28T03:57:46;1.73;;;0.95;;
57826;SDS011;43656;57.746;11.780;2023-02-28T04:00:27;2.15;;;0.95;;
57826;SDS011;43656;57.746;11.780;2023-02-28T04:03:00;3.78;;;1.30;;
57826;SDS011;43656;57.746;11.780;2023-02-28T04:05:26;3.63;;;1.27;;
57826;SDS011;43656;57.746;11.780;2023-02-28T04:07:52;3.45;;;1.10;;
57826;SDS011;43656;57.746;11.780;2023-02-28T04:10:19;4.13;;;0.98;;
57826;SDS011;43656;57.746;11.780;2023-02-28T04:12:45;2.72;;;1.33;;
57826;SDS011;43656;57.746;11.780;2023-02-28T04:15:10;2.25;;;1.48;;
57826;SDS011;43656;57.746;11.780;2023-02-28T04:17:36;4.70;;;0.90;;
57826;SDS011;43656;57.746;11.780;2023-02-28T04:20:02;5.10;;;1.33;;
57826;SDS011;43656;57.746;11.780;2023-02-28T04:22:34;2.83;;;1.30;;
57826;SDS011;43656;57.746;11.780;2023-02-28T04:24:59;3.60;;;1.20;;
57826;SDS011;43656;57.746;11.780;2023-02-28T04:27:24;2.72;;;0.90;;
57826;SDS011;43656;57.746;11.780;2023-02-28T04:29:50;2.33;;;0.80;;
57826;SDS011;43656;57.746;11.780;2023-02-28T04:32:15;3.88;;;1.30;;
57826;SDS011;43656;57.746;11.780;2023-02-28T04:34:41;3.42;;;1.10;;
57826;SDS011;43656;57.746;11.780;2023-02-28T04:37:06;2.58;;;1.05;;
57826;SDS011;43656;57.746;11.780;2023-02-28T04:39:34;2.88;;;1.20;;
57826;SDS011;43656;57.746;11.780;2023-02-28T04:42:01;1.70;;;1.02;;
57826;SDS011;43656;57.746;11.780;2023-02-28T04:44:27;1.90;;;1.08;;
57826;SDS011;43656;57.746;11.780;2023-02-28T04:46:52;2.35;;;1.50;;
57826;SDS011;43656;57.746;11.780;2023-02-28T04:49:17;3.50;;;1.05;;
57826;SDS011;43656;57.746;11.780;2023-02-28T04:51:43;2.85;;;1.00;;
57826;SDS011;43656;57.746;11.780;2023-02-28T04:54:08;2.22;;;1.13;;
57826;SDS011;43656;57.746;11.780;2023-02-28T04:56:35;6.65;;;1.05;;
57826;SDS011;43656;57.746;11.780;2023-02-28T04:59:00;1.70;;;0.98;;
57826;SDS011;43656;57.746;11.780;2023-02-28T05:01:30;1.92;;;0.80;;
57826;SDS011;43656;57.746;11.780;2023-02-28T05:03:58;4.30;;;0.90;;
57826;SDS011;43656;57.746;11.780;2023-02-28T05:06:25;3.58;;;0.90;;
57826;SDS011;43656;57.746;11.780;2023-02-28T05:08:52;1.52;;;0.90;;
57826;SDS011;43656;57.746;11.780;2023-02-28T05:11:25;1.85;;;1.10;;
57826;SDS011;43656;57.746;11.780;2023-02-28T05:13:51;15.60;;;3.88;;
57826;SDS011;43656;57.746;11.780;2023-02-28T05:16:18;18.75;;;3.33;;
57826;SDS011;43656;57.746;11.780;2023-02-28T05:18:44;183.95;;;4.60;;
57826;SDS011;43656;57.746;11.780;2023-02-28T05:21:22;139.15;;;5.20;;
57826;SDS011;43656;57.746;11.780;2023-02-28T05:23:57;249.48;;;6.05;;
57826;SDS011;43656;57.746;11.780;2023-02-28T05:26:25;80.40;;;4.45;;
57826;SDS011;43656;57.746;11.780;2023-02-28T05:28:51;87.15;;;5.45;;
57826;SDS011;43656;57.746;11.780;2023-02-28T05:31:17;65.18;;;7.15;;
57826;SDS011;43656;57.746;11.780;2023-02-28T05:33:42;116.43;;;5.32;;
57826;SDS011;43656;57.746;11.780;2023-02-28T05:36:08;48.45;;;3.30;;
57826;SDS011;43656;57.746;11.780;2023-02-28T05:38:33;46.17;;;5.32;;
57826;SDS011;43656;57.746;11.780;2023-02-28T05:40:59;48.05;;;6.00;;
57826;SDS011;43656;57.746;11.780;2023-02-28T05:43:25;49.97;;;5.40;;
57826;SDS011;43656;57.746;11.780;2023-02-28T05:45:51;109.85;;;6.28;;
57826;SDS011;43656;57.746;11.780;2023-02-28T05:48:17;63.60;;;5.57;;
57826;SDS011;43656;57.746;11.780;2023-02-28T05:50:43;51.63;;;6.53;;
57826;SDS011;43656;57.746;11.780;2023-02-28T05:53:11;55.88;;;6.30;;
57826;SDS011;43656;57.746;11.780;2023-02-28T05:55:36;95.90;;;8.23;;
57826;SDS011;43656;57.746;11.780;2023-02-28T05:58:02;44.00;;;6.07;;
57826;SDS011;43656;57.746;11.780;2023-02-28T06:00:28;23.20;;;6.15;;
57826;SDS011;43656;57.746;11.780;2023-02-28T06:02:54;58.80;;;7.75;;
57826;SDS011;43656;57.746;11.780;2023-02-28T06:05:22;40.17;;;7.10;;
57826;SDS011;43656;57.746;11.780;2023-02-28T06:07:47;43.30;;;5.63;;
57826;SDS011;43656;57.746;11.780;2023-02-28T06:10:13;36.60;;;4.78;;
57826;SDS011;43656;57.746;11.780;2023-02-28T06:12:39;128.35;;;9.45;;
57826;SDS011;43656;57.746;11.780;2023-02-28T06:15:06;57.85;;;8.70;;
57826;SDS011;43656;57.746;11.780;2023-02-28T06:17:36;110.25;;;7.72;;
57826;SDS011;43656;57.746;11.780;2023-02-28T06:20:01;49.33;;;5.78;;
57826;SDS011;43656;57.746;11.780;2023-02-28T06:22:27;52.30;;;4.82;;
57826;SDS011;43656;57.746;11.780;2023-02-28T06:24:53;91.75;;;9.00;;
57826;SDS011;43656;57.746;11.780;2023-02-28T06:27:19;60.88;;;6.85;;
57826;SDS011;43656;57.746;11.780;2023-02-28T06:29:45;125.88;;;8.23;;
57826;SDS011;43656;57.746;11.780;2023-02-28T06:32:11;68.13;;;9.85;;
57826;SDS011;43656;57.746;11.780;2023-02-28T06:34:36;46.58;;;9.52;;
57826;SDS011;43656;57.746;11.780;2023-02-28T06:37:01;50.22;;;9.30;;
57826;SDS011;43656;57.746;11.780;2023-02-28T06:39:28;102.00;;;7.40;;
57826;SDS011;43656;57.746;11.780;2023-02-28T06:41:54;165.18;;;12.32;;
57826;SDS011;43656;57.746;11.780;2023-02-28T06:44:20;52.83;;;10.15;;
57826;SDS011;43656;57.746;11.780;2023-02-28T06:46:45;117.60;;;12.52;;
57826;SDS011;43656;57.746;11.780;2023-02-28T06:49:11;83.95;;;11.98;;
57826;SDS011;43656;57.746;11.780;2023-02-28T06:51:38;93.50;;;12.15;;
57826;SDS011;43656;57.746;11.780;2023-02-28T06:54:05;151.35;;;11.85;;
57826;SDS011;43656;57.746;11.780;2023-02-28T06:56:33;122.55;;;10.10;;
57826;SDS011;43656;57.746;11.780;2023-02-28T06:58:59;337.80;;;16.20;;
57826;SDS011;43656;57.746;11.780;2023-02-28T07:01:24;77.25;;;10.48;;
57826;SDS011;43656;57.746;11.780;2023-02-28T07:03:50;121.78;;;9.45;;
57826;SDS011;43656;57.746;11.780;2023-02-28T07:06:20;64.55;;;8.63;;
57826;SDS011;43656;57.746;11.780;2023-02-28T07:08:48;52.88;;;8.63;;
57826;SDS011;43656;57.746;11.780;2023-02-28T07:11:14;93.47;;;11.30;;
57826;SDS011;43656;57.746;11.780;2023-02-28T07:13:40;80.07;;;11.55;;
57826;SDS011;43656;57.746;11.780;2023-02-28T07:16:08;151.07;;;12.85;;
57826;SDS011;43656;57.746;11.780;2023-02-28T07:18:35;60.60;;;11.48;;
57826;SDS011;43656;57.746;11.780;2023-02-28T07:21:02;94.30;;;13.40;;
57826;SDS011;43656;57.746;11.780;2023-02-28T07:23:29;52.50;;;11.68;;
57826;SDS011;43656;57.746;11.780;2023-02-28T07:25:54;45.63;;;12.27;;
57826;SDS011;43656;57.746;11.780;2023-02-28T07:28:20;61.45;;;14.73;;
57826;SDS011;43656;57.746;11.780;2023-02-28T07:30:45;52.92;;;13.07;;
57826;SDS011;43656;57.746;11.780;2023-02-28T07:33:11;57.28;;;13.43;;
57826;SDS011;43656;57.746;11.780;2023-02-28T07:35:36;68.03;;;14.07;;
57826;SDS011;43656;57.746;11.780;2023-02-28T07:38:02;81.60;;;17.98;;
57826;SDS011;43656;57.746;11.780;2023-02-28T07:40:28;61.55;;;16.85;;
57826;SDS011;43656;57.746;11.780;2023-02-28T07:42:53;139.00;;;25.98;;
57826;SDS011;43656;57.746;11.780;2023-02-28T07:45:18;107.75;;;22.75;;
57826;SDS011;43656;57.746;11.780;2023-02-28T07:47:44;230.68;;;28.92;;
57826;SDS011;43656;57.746;11.780;2023-02-28T07:50:11;51.90;;;14.18;;
57826;SDS011;43656;57.746;11.780;2023-02-28T07:52:38;60.42;;;13.18;;
57826;SDS011;43656;57.746;11.780;2023-02-28T07:55:05;36.60;;;11.65;;
57826;SDS011;43656;57.746;11.780;2023-02-28T07:57:31;232.50;;;22.65;;
57826;SDS011;43656;57.746;11.780;2023-02-28T07:59:57;146.75;;;16.63;;
57826;SDS011;43656;57.746;11.780;2023-02-28T08:02:22;171.48;;;28.95;;
57826;SDS011;43656;57.746;11.780;2023-02-28T08:04:47;103.18;;;13.88;;
57826;SDS011;43656;57.746;11.780;2023-02-28T08:07:14;320.83;;;20.75;;
57826;SDS011;43656;57.746;11.780;2023-02-28T08:09:40;293.40;;;19.92;;
57826;SDS011;43656;57.746;11.780;2023-02-28T08:12:06;110.25;;;14.25;;
57826;SDS011;43656;57.746;11.780;2023-02-28T08:14:32;231.48;;;19.40;;
57826;SDS011;43656;57.746;11.780;2023-02-28T08:16:58;116.30;;;13.70;;
57826;SDS011;43656;57.746;11.780;2023-02-28T08:19:23;92.28;;;14.32;;
57826;SDS011;43656;57.746;11.780;2023-02-28T08:21:49;71.75;;;14.38;;
57826;SDS011;43656;57.746;11.780;2023-02-28T08:24:14;151.70;;;17.25;;
57826;SDS011;43656;57.746;11.780;2023-02-28T08:26:41;136.85;;;16.67;;
57826;SDS011;43656;57.746;11.780;2023-02-28T08:29:07;78.47;;;13.07;;
57826;SDS011;43656;57.746;11.780;2023-02-28T08:31:32;66.30;;;10.50;;
57826;SDS011;43656;57.746;11.780;2023-02-28T08:33:57;99.28;;;11.88;;
57826;SDS011;43656;57.746;11.780;2023-02-28T08:36:24;96.15;;;12.65;;
57826;SDS011;43656;57.746;11.780;2023-02-28T08:38:51;60.35;;;11.77;;
57826;SDS011;43656;57.746;11.780;2023-02-28T08:41:16;204.20;;;18.50;;
57826;SDS011;43656;57.746;11.780;2023-02-28T08:43:42;120.43;;;15.85;;
57826;SDS011;43656;57.746;11.780;2023-02-28T08:46:10;132.35;;;18.40;;
57826;SDS011;43656;57.746;11.780;2023-02-28T08:48:38;43.55;;;11.43;;
57826;SDS011;43656;57.746;11.780;2023-02-28T08:51:08;85.78;;;15.60;;
57826;SDS011;43656;57.746;11.780;2023-02-28T08:53:46;70.53;;;14.60;;
57826;SDS011;43656;57.746;11.780;2023-02-28T08:56:14;31.83;;;10.38;;
57826;SDS011;43656;57.746;11.780;2023-02-28T08:58:42;36.22;;;11.15;;
57826;SDS011;43656;57.746;11.780;2023-02-28T09:01:13;44.40;;;12.23;;
57826;SDS011;43656;57.746;11.780;2023-02-28T09:03:43;29.83;;;10.20;;
57826;SDS011;43656;57.746;11.780;2023-02-28T09:06:10;32.58;;;10.13;;
57826;SDS011;43656;57.746;11.780;2023-02-28T09:08:37;65.97;;;10.30;;
57826;SDS011;43656;57.746;11.780;2023-02-28T09:11:02;33.20;;;8.05;;
57826;SDS011;43656;57.746;11.780;2023-02-28T09:13:28;44.15;;;8.93;;
57826;SDS011;43656;57.746;11.780;2023-02-28T09:15:56;31.90;;;8.98;;
57826;SDS011;43656;57.746;11.780;2023-02-28T09:18:22;23.80;;;8.05;;
57826;SDS011;43656;57.746;11.780;2023-02-28T09:20:48;33.65;;;8.18;;
57826;SDS011;43656;57.746;11.780;2023-02-28T09:23:14;23.17;;;6.80;;
57826;SDS011;43656;57.746;11.780;2023-02-28T09:25:49;12.18;;;5.80;;
57826;SDS011;43656;57.746;11.780;2023-02-28T09:28:16;8.65;;;5.15;;
57826;SDS011;43656;57.746;11.780;2023-02-28T09:30:44;19.60;;;7.50;;
57826;SDS011;43656;57.746;11.780;2023-02-28T09:33:10;12.40;;;5.55;;
57826;SDS011;43656;57.746;11.780;2023-02-28T09:35:36;17.17;;;6.88;;
57826;SDS011;43656;57.746;11.780;2023-02-28T09:38:02;14.07;;;6.30;;
57826;SDS011;43656;57.746;11.780;2023-02-28T09:40:28;14.68;;;6.75;;
57826;SDS011;43656;57.746;11.780;2023-02-28T09:42:55;15.50;;;6.55;;
57826;SDS011;43656;57.746;11.780;2023-02-28T09:45:30;17.15;;;7.18;;
57826;SDS011;43656;57.746;11.780;2023-02-28T09:48:12;21.00;;;6.60;;
57826;SDS011;43656;57.746;11.780;2023-02-28T09:50:41;21.02;;;7.18;;
57826;SDS011;43656;57.746;11.780;2023-02-28T09:53:26;19.77;;;7.30;;
57826;SDS011;43656;57.746;11.780;2023-02-28T09:56:04;11.00;;;6.03;;
57826;SDS011;43656;57.746;11.780;2023-02-28T10:01:55;30.10;;;6.45;;
57826;SDS011;43656;57.746;11.780;2023-02-28T10:06:44;11.75;;;5.18;;
57826;SDS011;43656;57.746;11.780;2023-02-28T10:11:45;6.30;;;4.15;;
57826;SDS011;43656;57.746;11.780;2023-02-28T10:14:24;16.67;;;4.07;;
57826;SDS011;43656;57.746;11.780;2023-02-28T10:16:54;20.00;;;4.70;;
57826;SDS011;43656;57.746;11.780;2023-02-28T10:21:59;9.93;;;4.20;;
57826;SDS011;43656;57.746;11.780;2023-02-28T10:27:21;31.58;;;4.32;;
57826;SDS011;43656;57.746;11.780;2023-02-28T10:29:54;56.60;;;5.20;;
57826;SDS011;43656;57.746;11.780;2023-02-28T10:32:29;25.48;;;4.95;;
57826;SDS011;43656;57.746;11.780;2023-02-28T10:35:06;16.60;;;4.00;;
57826;SDS011;43656;57.746;11.780;2023-02-28T10:37:38;5.85;;;4.13;;
57826;SDS011;43656;57.746;11.780;2023-02-28T10:42:54;10.68;;;6.00;;
57826;SDS011;43656;57.746;11.780;2023-02-28T10:45:20;11.00;;;6.63;;
57826;SDS011;43656;57.746;11.780;2023-02-28T10:50:33;17.13;;;9.00;;
57826;SDS011;43656;57.746;11.780;2023-02-28T10:55:57;16.85;;;8.95;;
57826;SDS011;43656;57.746;11.780;2023-02-28T10:58:34;14.05;;;8.30;;
57826;SDS011;43656;57.746;11.780;2023-02-28T11:01:11;13.45;;;8.13;;
57826;SDS011;43656;57.746;11.780;2023-02-28T11:03:39;16.67;;;8.63;;
57826;SDS011;43656;57.746;11.780;2023-02-28T11:06:06;13.63;;;7.43;;
57826;SDS011;43656;57.746;11.780;2023-02-28T11:08:33;10.77;;;6.55;;
57826;SDS011;43656;57.746;11.780;2023-02-28T11:11:08;12.13;;;6.35;;
57826;SDS011;43656;57.746;11.780;2023-02-28T11:13:34;10.32;;;5.60;;
57826;SDS011;43656;57.746;11.780;2023-02-28T11:16:06;8.57;;;5.45;;
57826;SDS011;43656;57.746;11.780;2023-02-28T11:21:26;7.72;;;5.22;;
57826;SDS011;43656;57.746;11.780;2023-02-28T11:23:58;6.93;;;4.72;;
57826;SDS011;43656;57.746;11.780;2023-02-28T11:26:35;5.63;;;3.97;;
57826;SDS011;43656;57.746;11.780;2023-02-28T11:29:08;7.30;;;4.20;;
57826;SDS011;43656;57.746;11.780;2023-02-28T11:32:13;6.90;;;4.60;;
57826;SDS011;43656;57.746;11.780;2023-02-28T11:34:39;6.20;;;4.35;;
57826;SDS011;43656;57.746;11.780;2023-02-28T11:37:08;32.70;;;4.13;;
57826;SDS011;43656;57.746;11.780;2023-02-28T11:39:36;56.30;;;5.03;;
57826;SDS011;43656;57.746;11.780;2023-02-28T11:50:52;113.93;;;6.13;;
57826;SDS011;43656;57.746;11.780;2023-02-28T12:04:46;121.18;;;8.43;;
57826;SDS011;43656;57.746;11.780;2023-02-28T12:08:18;116.03;;;7.53;;
57826;SDS011;43656;57.746;11.780;2023-02-28T12:10:26;124.90;;;8.68;;
57826;SDS011;43656;57.746;11.780;2023-02-28T12:23:54;32.20;;;5.63;;
57826;SDS011;43656;57.746;11.780;2023-02-28T12:32:05;5.53;;;3.95;;
57826;SDS011;43656;57.746;11.780;2023-02-28T12:34:38;6.35;;;4.75;;
57826;SDS011;43656;57.746;11.780;2023-02-28T12:37:09;11.93;;;4.43;;
57826;SDS011;43656;57.746;11.780;2023-02-28T12:39:44;10.95;;;4.50;;
57826;SDS011;43656;57.746;11.780;2023-02-28T12:42:17;66.65;;;5.30;;
57826;SDS011;43656;57.746;11.780;2023-02-28T12:44:51;140.18;;;5.78;;
57826;SDS011;43656;57.746;11.780;2023-02-28T12:47:19;82.50;;;5.60;;
57826;SDS011;43656;57.746;11.780;2023-02-28T12:52:42;106.05;;;7.68;;
57826;SDS011;43656;57.746;11.780;2023-02-28T12:55:31;277.75;;;8.73;;
57826;SDS011;43656;57.746;11.780;2023-02-28T13:07:06;144.95;;;5.95;;
57826;SDS011;43656;57.746;11.780;2023-02-28T13:09:41;291.63;;;7.13;;
57826;SDS011;43656;57.746;11.780;2023-02-28T13:12:18;210.07;;;5.63;;
57826;SDS011;43656;57.746;11.780;2023-02-28T13:14:45;130.20;;;5.20;;
57826;SDS011;43656;57.746;11.780;2023-02-28T13:17:12;91.72;;;4.35;;
57826;SDS011;43656;57.746;11.780;2023-02-28T13:20:13;361.42;;;8.02;;
57826;SDS011;43656;57.746;11.780;2023-02-28T13:22:49;311.95;;;6.85;;
57826;SDS011;43656;57.746;11.780;2023-02-28T13:27:58;158.82;;;6.43;;
57826;SDS011;43656;57.746;11.780;2023-02-28T13:38:48;40.80;;;3.60;;
57826;SDS011;43656;57.746;11.780;2023-02-28T13:44:00;54.92;;;4.28;;
57826;SDS011;43656;57.746;11.780;2023-02-28T13:49:28;17.15;;;3.60;;
57826;SDS011;43656;57.746;11.780;2023-02-28T14:08:58;143.63;;;7.57;;
57826;SDS011;43656;57.746;11.780;2023-02-28T14:11:29;78.43;;;4.70;;
57826;SDS011;43656;57.746;11.780;2023-02-28T14:14:00;73.80;;;4.50;;
57826;SDS011;43656;57.746;11.780;2023-02-28T14:16:27;89.90;;;5.57;;
57826;SDS011;43656;57.746;11.780;2023-02-28T14:19:14;43.20;;;3.92;;
57826;SDS011;43656;57.746;11.780;2023-02-28T14:22:32;71.28;;;6.00;;
57826;SDS011;43656;57.746;11.780;2023-02-28T14:38:21;2.35;;;2.00;;
57826;SDS011;43656;57.746;11.780;2023-02-28T14:40:51;2.72;;;2.30;;
57826;SDS011;43656;57.746;11.780;2023-02-28T14:43:23;2.95;;;2.03;;
57826;SDS011;43656;57.746;11.780;2023-02-28T14:45:54;2.45;;;2.00;;
57826;SDS011;43656;57.746;11.780;2023-02-28T14:48:22;2.22;;;2.03;;
57826;SDS011;43656;57.746;11.780;2023-02-28T14:50:50;6.10;;;2.33;;
57826;SDS011;43656;57.746;11.780;2023-02-28T14:53:21;5.75;;;2.20;;
57826;SDS011;43656;57.746;11.780;2023-02-28T14:55:48;6.53;;;2.63;;
57826;SDS011;43656;57.746;11.780;2023-02-28T14:58:28;6.13;;;2.03;;
57826;SDS011;43656;57.746;11.780;2023-02-28T15:00:56;15.90;;;2.40;;
57826;SDS011;43656;57.746;11.780;2023-02-28T15:03:36;7.68;;;2.65;;
57826;SDS011;43656;57.746;11.780;2023-02-28T15:06:04;2.17;;;1.98;;
57826;SDS011;43656;57.746;11.780;2023-02-28T15:08:31;1.90;;;1.80;;
57826;SDS011;43656;57.746;11.780;2023-02-28T15:13:53;1.50;;;1.40;;
57826;SDS011;43656;57.746;11.780;2023-02-28T15:16:24;2.00;;;1.20;;
57826;SDS011;43656;57.746;11.780;2023-02-28T15:19:00;2.00;;;1.77;;
57826;SDS011;43656;57.746;11.780;2023-02-28T15:21:31;1.40;;;1.30;;
57826;SDS011;43656;57.746;11.780;2023-02-28T15:24:04;1.77;;;1.52;;
57826;SDS011;43656;57.746;11.780;2023-02-28T15:26:59;1.52;;;1.40;;
57826;SDS011;43656;57.746;11.780;2023-02-28T15:29:28;1.40;;;1.25;;
57826;SDS011;43656;57.746;11.780;2023-02-28T15:32:05;2.10;;;1.60;;
57826;SDS011;43656;57.746;11.780;2023-02-28T15:34:37;1.75;;;1.60;;
57826;SDS011;43656;57.746;11.780;2023-02-28T15:39:58;1.58;;;1.40;;
57826;SDS011;43656;57.746;11.780;2023-02-28T15:42:37;2.25;;;1.67;;
57826;SDS011;43656;57.746;11.780;2023-02-28T15:45:03;1.83;;;1.70;;
57826;SDS011;43656;57.746;11.780;2023-02-28T15:47:29;1.45;;;1.35;;
57826;SDS011;43656;57.746;11.780;2023-02-28T15:52:38;1.40;;;1.30;;
57826;SDS011;43656;57.746;11.780;2023-02-28T15:58:01;1.90;;;1.30;;
57826;SDS011;43656;57.746;11.780;2023-02-28T16:00:28;1.52;;;1.25;;
57826;SDS011;43656;57.746;11.780;2023-02-28T16:02:55;1.33;;;1.23;;
57826;SDS011;43656;57.746;11.780;2023-02-28T16:05:22;1.45;;;1.35;;
57826;SDS011;43656;57.746;11.780;2023-02-28T16:08:00;1.10;;;0.98;;
57826;SDS011;43656;57.746;11.780;2023-02-28T16:10:36;1.85;;;0.90;;
57826;SDS011;43656;57.746;11.780;2023-02-28T16:13:02;0.90;;;0.80;;
57826;SDS011;43656;57.746;11.780;2023-02-28T16:15:28;2.05;;;1.15;;
57826;SDS011;43656;57.746;11.780;2023-02-28T16:18:00;1.05;;;0.95;;
57826;SDS011;43656;57.746;11.780;2023-02-28T16:20:26;1.33;;;1.05;;
57826;SDS011;43656;57.746;11.780;2023-02-28T16:22:54;1.20;;;1.10;;
57826;SDS011;43656;57.746;11.780;2023-02-28T16:25:23;1.10;;;0.98;;
57826;SDS011;43656;57.746;11.780;2023-02-28T16:27:54;1.02;;;0.93;;
57826;SDS011;43656;57.746;11.780;2023-02-28T16:30:24;1.38;;;1.10;;
57826;SDS011;43656;57.746;11.780;2023-02-28T16:32:51;0.82;;;0.82;;
57826;SDS011;43656;57.746;11.780;2023-02-28T16:35:18;0.80;;;0.80;;
57826;SDS011;43656;57.746;11.780;2023-02-28T16:37:45;2.05;;;1.00;;
57826;SDS011;43656;57.746;11.780;2023-02-28T16:40:28;2.05;;;0.88;;
57826;SDS011;43656;57.746;11.780;2023-02-28T16:42:59;0.80;;;0.80;;
57826;SDS011;43656;57.746;11.780;2023-02-28T16:45:29;0.80;;;0.80;;
57826;SDS011;43656;57.746;11.780;2023-02-28T16:47:54;1.35;;;0.90;;
57826;SDS011;43656;57.746;11.780;2023-02-28T16:50:21;2.70;;;1.00;;
57826;SDS011;43656;57.746;11.780;2023-02-28T16:52:52;1.33;;;0.90;;
57826;SDS011;43656;57.746;11.780;2023-02-28T16:55:19;2.15;;;1.20;;
57826;SDS011;43656;57.746;11.780;2023-02-28T16:57:46;2.40;;;1.20;;
57826;SDS011;43656;57.746;11.780;2023-02-28T17:00:18;1.17;;;0.95;;
57826;SDS011;43656;57.746;11.780;2023-02-28T17:02:44;1.10;;;0.90;;
57826;SDS011;43656;57.746;11.780;2023-02-28T17:05:12;1.20;;;0.90;;
57826;SDS011;43656;57.746;11.780;2023-02-28T17:07:39;2.92;;;1.20;;
57826;SDS011;43656;57.746;11.780;2023-02-28T17:12:43;1.17;;;0.90;;
57826;SDS011;43656;57.746;11.780;2023-02-28T17:15:09;1.30;;;0.80;;
57826;SDS011;43656;57.746;11.780;2023-02-28T17:17:37;1.30;;;0.90;;
57826;SDS011;43656;57.746;11.780;2023-02-28T17:20:03;2.47;;;0.90;;
57826;SDS011;43656;57.746;11.780;2023-02-28T17:22:29;1.45;;;0.90;;
57826;SDS011;43656;57.746;11.780;2023-02-28T17:24:54;1.10;;;0.90;;
57826;SDS011;43656;57.746;11.780;2023-02-28T17:27:23;1.77;;;1.20;;